Time;durP1;ratioP1;P1;durP2;ratioP2;P2;SDS_P1;SDS_P2;PMS_P1;PMS_P2;Temp;Humidity;BMP_temperature;BMP_pressure;BME280_temperature;BME280_humidity;BME280_pressure;Samples;Min_cycle;Max_cycle;Signal;HPM_P1;HPM_P2
2023/01/23 00:00:27;;;;;;;114.50;26.60;;;;;;;-128.00;-1.00;-1.00;100954;1305;1004364;-33
2023/01/23 00:02:52;;;;;;;166.50;30.50;;;;;;;-128.00;-1.00;-1.00;100928;1298;1003723;-36
2023/01/23 00:05:18;;;;;;;83.70;27.00;;;;;;;-128.00;-1.00;-1.00;100850;1305;1004668;-37
2023/01/23 00:07:44;;;;;;;118.20;25.70;;;;;;;-128.00;-1.00;-1.00;100869;1305;1004553;-36
2023/01/23 00:10:10;;;;;;;72.30;17.90;;;;;;;-128.00;-1.00;-1.00;101039;1305;1004437;-33
2023/01/23 00:12:36;;;;;;;72.90;21.70;;;;;;;-128.00;-1.00;-1.00;98104;1305;1004840;-33
2023/01/23 00:15:02;;;;;;;138.70;26.70;;;;;;;-128.00;-1.00;-1.00;97595;1305;2004597;-33
2023/01/23 00:17:28;;;;;;;72.90;18.60;;;;;;;-128.00;-1.00;-1.00;101162;1305;1004757;-36
2023/01/23 00:19:54;;;;;;;102.40;23.80;;;;;;;-128.00;-1.00;-1.00;101176;1305;1003356;-33
2023/01/23 00:22:20;;;;;;;54.20;17.20;;;;;;;-128.00;-1.00;-1.00;101059;1305;1003859;-37
2023/01/23 00:24:46;;;;;;;66.00;19.30;;;;;;;-128.00;-1.00;-1.00;101190;1305;1002907;-35
2023/01/23 00:27:12;;;;;;;77.30;23.40;;;;;;;-128.00;-1.00;-1.00;100461;1305;1003195;-33
2023/01/23 00:29:37;;;;;;;123.20;20.90;;;;;;;-128.00;-1.00;-1.00;101175;1305;1003475;-36
2023/01/23 00:32:03;;;;;;;137.40;21.40;;;;;;;-128.00;-1.00;-1.00;101119;1305;1003849;-36
2023/01/23 00:34:29;;;;;;;108.30;20.50;;;;;;;-128.00;-1.00;-1.00;101100;1305;1002977;-36
2023/01/23 00:36:55;;;;;;;121.30;20.00;;;;;;;-128.00;-1.00;-1.00;100291;1305;1003381;-35
2023/01/23 00:39:20;;;;;;;59.90;20.30;;;;;;;-128.00;-1.00;-1.00;101244;1305;1003025;-32
2023/01/23 00:41:47;;;;;;;49.40;17.50;;;;;;;-128.00;-1.00;-1.00;101087;1305;1004595;-32
2023/01/23 00:44:13;;;;;;;84.00;18.20;;;;;;;-128.00;-1.00;-1.00;101177;1305;1003794;-35
2023/01/23 00:46:39;;;;;;;58.00;16.70;;;;;;;-128.00;-1.00;-1.00;101103;1305;1003751;-34
2023/01/23 00:49:04;;;;;;;84.50;18.50;;;;;;;-128.00;-1.00;-1.00;101082;1305;1004549;-33
2023/01/23 00:51:30;;;;;;;61.00;18.00;;;;;;;-128.00;-1.00;-1.00;95936;1305;1004325;-36
2023/01/23 00:53:56;;;;;;;89.20;19.80;;;;;;;-128.00;-1.00;-1.00;101107;1305;1003383;-33
2023/01/23 00:56:22;;;;;;;115.70;22.80;;;;;;;-128.00;-1.00;-1.00;101093;1305;1002917;-32
2023/01/23 00:58:47;;;;;;;49.20;13.70;;;;;;;-128.00;-1.00;-1.00;101089;1305;1003572;-33
2023/01/23 01:01:14;;;;;;;46.00;14.10;;;;;;;-128.00;-1.00;-1.00;101155;1305;1005407;-33
2023/01/23 01:03:40;;;;;;;85.90;16.50;;;;;;;-128.00;-1.00;-1.00;101123;1305;1002688;-35
2023/01/23 01:06:07;;;;;;;91.90;20.10;;;;;;;-128.00;-1.00;-1.00;101040;1305;1003082;-32
2023/01/23 01:08:32;;;;;;;146.10;21.90;;;;;;;-128.00;-1.00;-1.00;101049;1305;1003359;-32
2023/01/23 01:10:58;;;;;;;54.80;16.70;;;;;;;-128.00;-1.00;-1.00;101130;1305;1004670;-35
2023/01/23 01:13:24;;;;;;;67.50;20.70;;;;;;;-128.00;-1.00;-1.00;101089;1305;1003398;-32
2023/01/23 01:15:50;;;;;;;104.10;20.00;;;;;;;-128.00;-1.00;-1.00;101063;1305;1002592;-33
2023/01/23 01:18:16;;;;;;;48.70;14.90;;;;;;;-128.00;-1.00;-1.00;100972;1305;1003128;-35
2023/01/23 01:20:42;;;;;;;33.60;12.10;;;;;;;-128.00;-1.00;-1.00;101158;1305;1004707;-33
2023/01/23 01:23:08;;;;;;;42.40;11.70;;;;;;;-128.00;-1.00;-1.00;101055;1297;1003512;-37
2023/01/23 01:25:34;;;;;;;108.30;20.10;;;;;;;-128.00;-1.00;-1.00;101067;1305;1002821;-34
2023/01/23 01:28:00;;;;;;;40.10;13.10;;;;;;;-128.00;-1.00;-1.00;101146;1305;1004006;-36
2023/01/23 01:30:26;;;;;;;57.70;15.20;;;;;;;-128.00;-1.00;-1.00;101059;1305;1003043;-37
2023/01/23 01:32:52;;;;;;;51.70;14.90;;;;;;;-128.00;-1.00;-1.00;101014;1305;1004342;-36
2023/01/23 01:35:18;;;;;;;50.40;15.60;;;;;;;-128.00;-1.00;-1.00;101071;1305;1003413;-37
2023/01/23 01:37:44;;;;;;;67.90;16.80;;;;;;;-128.00;-1.00;-1.00;101127;1305;1003510;-32
2023/01/23 01:40:13;;;;;;;41.80;13.00;;;;;;;-128.00;-1.00;-1.00;101046;1305;1003801;-35
2023/01/23 01:42:47;;;;;;;54.40;13.40;;;;;;;-128.00;-1.00;-1.00;101138;1302;1002974;-33
2023/01/23 01:45:37;;;;;;;128.00;21.90;;;;;;;-128.00;-1.00;-1.00;101113;1305;1003809;-32
2023/01/23 01:48:03;;;;;;;82.20;18.90;;;;;;;-128.00;-1.00;-1.00;100981;1305;1003105;-33
2023/01/23 01:50:29;;;;;;;73.60;20.40;;;;;;;-128.00;-1.00;-1.00;101003;1305;1003372;-32
2023/01/23 01:52:55;;;;;;;167.70;23.20;;;;;;;-128.00;-1.00;-1.00;101026;1305;1002648;-36
2023/01/23 01:55:20;;;;;;;228.30;25.50;;;;;;;-128.00;-1.00;-1.00;101098;1305;1004405;-34
2023/01/23 01:57:47;;;;;;;268.70;34.40;;;;;;;-128.00;-1.00;-1.00;101026;1305;1004176;-35
2023/01/23 02:00:15;;;;;;;119.80;25.10;;;;;;;-128.00;-1.00;-1.00;101019;1305;1004002;-35
2023/01/23 02:02:43;;;;;;;46.70;16.40;;;;;;;-128.00;-1.00;-1.00;101003;1303;1002967;-32
2023/01/23 02:05:11;;;;;;;75.00;17.70;;;;;;;-128.00;-1.00;-1.00;101063;1305;1003381;-35
2023/01/23 02:07:41;;;;;;;62.10;17.20;;;;;;;-128.00;-1.00;-1.00;101092;1305;1002591;-37
2023/01/23 02:10:07;;;;;;;42.10;13.90;;;;;;;-128.00;-1.00;-1.00;101122;1305;1004511;-33
2023/01/23 02:12:34;;;;;;;62.80;16.50;;;;;;;-128.00;-1.00;-1.00;101053;1305;1003311;-37
2023/01/23 02:15:01;;;;;;;242.60;28.90;;;;;;;-128.00;-1.00;-1.00;101030;1305;1004145;-37
2023/01/23 02:17:29;;;;;;;68.10;19.90;;;;;;;-128.00;-1.00;-1.00;101034;1298;1002803;-32
2023/01/23 02:20:18;;;;;;;92.80;19.00;;;;;;;-128.00;-1.00;-1.00;101028;1305;1003476;-32
2023/01/23 02:23:07;;;;;;;57.40;16.50;;;;;;;-128.00;-1.00;-1.00;101054;1305;1003272;-33
2023/01/23 02:25:50;;;;;;;65.50;16.00;;;;;;;-128.00;-1.00;-1.00;101162;1301;1005046;-33
2023/01/23 02:28:16;;;;;;;56.60;14.70;;;;;;;-128.00;-1.00;-1.00;101016;1305;1003263;-33
2023/01/23 02:30:42;;;;;;;105.40;19.30;;;;;;;-128.00;-1.00;-1.00;101073;1304;1003207;-33
2023/01/23 02:33:39;;;;;;;193.30;20.30;;;;;;;-128.00;-1.00;-1.00;101120;1305;1003824;-37
2023/01/23 02:36:07;;;;;;;176.50;22.30;;;;;;;-128.00;-1.00;-1.00;101102;1305;1003285;-35
2023/01/23 02:38:36;;;;;;;86.70;19.20;;;;;;;-128.00;-1.00;-1.00;101125;1304;1002801;-32
2023/01/23 02:41:03;;;;;;;59.70;14.20;;;;;;;-128.00;-1.00;-1.00;101132;1301;1004146;-35
2023/01/23 02:43:37;;;;;;;112.90;16.70;;;;;;;-128.00;-1.00;-1.00;101021;1298;1003617;-32
2023/01/23 02:46:08;;;;;;;93.80;17.80;;;;;;;-128.00;-1.00;-1.00;101010;1305;1003480;-32
2023/01/23 02:48:35;;;;;;;55.70;17.70;;;;;;;-128.00;-1.00;-1.00;101084;1305;1003380;-32
2023/01/23 02:51:01;;;;;;;59.20;19.40;;;;;;;-128.00;-1.00;-1.00;101110;1305;1003249;-32
2023/01/23 02:53:28;;;;;;;97.10;17.60;;;;;;;-128.00;-1.00;-1.00;101034;1305;1004289;-32
2023/01/23 02:55:55;;;;;;;32.10;10.50;;;;;;;-128.00;-1.00;-1.00;101096;1305;1003293;-37
2023/01/23 03:00:58;;;;;;;51.00;16.50;;;;;;;-128.00;-1.00;-1.00;101060;1305;1004270;-35
2023/01/23 03:03:24;;;;;;;48.00;14.20;;;;;;;-128.00;-1.00;-1.00;101010;1305;1002878;-35
2023/01/23 03:05:50;;;;;;;53.20;16.00;;;;;;;-128.00;-1.00;-1.00;101056;1305;1004553;-32
2023/01/23 03:08:16;;;;;;;64.90;16.90;;;;;;;-128.00;-1.00;-1.00;101101;1305;1003094;-31
2023/01/23 03:10:42;;;;;;;42.10;12.30;;;;;;;-128.00;-1.00;-1.00;101079;1305;1003682;-35
2023/01/23 03:13:10;;;;;;;55.80;15.80;;;;;;;-128.00;-1.00;-1.00;101075;1305;1003960;-35
2023/01/23 03:15:41;;;;;;;55.00;14.60;;;;;;;-128.00;-1.00;-1.00;101151;1305;1003149;-32
2023/01/23 03:18:07;;;;;;;69.00;18.40;;;;;;;-128.00;-1.00;-1.00;101023;1305;1003353;-31
2023/01/23 03:20:39;;;;;;;44.80;13.00;;;;;;;-128.00;-1.00;-1.00;101122;1304;1002886;-34
2023/01/23 03:23:05;;;;;;;76.80;18.40;;;;;;;-128.00;-1.00;-1.00;101114;1305;1002909;-37
2023/01/23 03:25:31;;;;;;;110.80;23.30;;;;;;;-128.00;-1.00;-1.00;101056;1305;1004694;-35
2023/01/23 03:27:56;;;;;;;135.80;19.50;;;;;;;-128.00;-1.00;-1.00;101118;1305;1003132;-34
2023/01/23 03:30:24;;;;;;;58.70;16.70;;;;;;;-128.00;-1.00;-1.00;101088;1305;1005101;-32
2023/01/23 03:32:50;;;;;;;72.80;15.00;;;;;;;-128.00;-1.00;-1.00;101064;1298;1003109;-35
2023/01/23 03:35:16;;;;;;;46.10;14.40;;;;;;;-128.00;-1.00;-1.00;101119;1305;1003889;-34
2023/01/23 03:37:43;;;;;;;57.00;19.10;;;;;;;-128.00;-1.00;-1.00;101025;1305;1003073;-34
2023/01/23 03:42:52;;;;;;;;;;;;;;;-128.00;-1.00;-1.00;101094;1302;1002797;-32
2023/01/23 03:45:18;;;;;;;172.90;20.00;;;;;;;-128.00;-1.00;-1.00;101025;1305;1003477;-35
2023/01/23 03:47:44;;;;;;;95.10;20.90;;;;;;;-128.00;-1.00;-1.00;101084;1305;1003237;-34
2023/01/23 03:50:10;;;;;;;47.10;13.90;;;;;;;-128.00;-1.00;-1.00;101077;1305;1003677;-33
2023/01/23 03:52:36;;;;;;;78.70;17.80;;;;;;;-128.00;-1.00;-1.00;101060;1305;1003411;-33
2023/01/23 03:55:02;;;;;;;78.30;18.30;;;;;;;-128.00;-1.00;-1.00;101109;1305;1003490;-35
2023/01/23 03:57:28;;;;;;;74.40;14.50;;;;;;;-128.00;-1.00;-1.00;101021;1301;1003976;-31
2023/01/23 03:59:54;;;;;;;163.70;24.80;;;;;;;-128.00;-1.00;-1.00;101050;1305;1002572;-35
2023/01/23 04:02:20;;;;;;;64.90;18.10;;;;;;;-128.00;-1.00;-1.00;101066;1305;1003424;-35
2023/01/23 04:04:46;;;;;;;81.90;17.80;;;;;;;-128.00;-1.00;-1.00;101066;1305;1002946;-32
2023/01/23 04:07:11;;;;;;;162.90;21.00;;;;;;;-128.00;-1.00;-1.00;101149;1305;1002401;-31
2023/01/23 04:09:37;;;;;;;133.80;17.90;;;;;;;-128.00;-1.00;-1.00;101036;1305;1003064;-36
2023/01/23 04:12:03;;;;;;;63.90;16.30;;;;;;;-128.00;-1.00;-1.00;100998;1305;1002919;-35
2023/01/23 04:14:31;;;;;;;163.20;19.50;;;;;;;-128.00;-1.00;-1.00;101103;1301;1004143;-31
2023/01/23 04:16:58;;;;;;;75.30;18.10;;;;;;;-128.00;-1.00;-1.00;101094;1305;1003038;-35
2023/01/23 04:19:24;;;;;;;92.90;18.50;;;;;;;-128.00;-1.00;-1.00;101113;1305;1004806;-38
2023/01/23 04:21:49;;;;;;;68.60;17.80;;;;;;;-128.00;-1.00;-1.00;101147;1305;1004547;-35
2023/01/23 04:24:16;;;;;;;70.30;18.00;;;;;;;-128.00;-1.00;-1.00;101074;1305;1003888;-32
2023/01/23 04:26:41;;;;;;;98.90;15.90;;;;;;;-128.00;-1.00;-1.00;101067;1304;1003229;-34
2023/01/23 04:29:07;;;;;;;54.10;15.90;;;;;;;-128.00;-1.00;-1.00;101095;1305;1002521;-36
2023/01/23 04:31:33;;;;;;;102.20;16.80;;;;;;;-128.00;-1.00;-1.00;101069;1305;1004257;-32
2023/01/23 04:33:59;;;;;;;66.50;14.90;;;;;;;-128.00;-1.00;-1.00;101105;1305;1002850;-34
2023/01/23 05:15:21;;;;;;;118.80;19.90;;;;;;;-102.59;19.20;20249.02;101811;1304;1544279;-32
2023/01/23 05:17:48;;;;;;;106.50;24.90;;;;;;;-128.00;-1.00;-1.00;100703;1303;1002952;-32
2023/01/23 05:20:14;;;;;;;81.20;21.80;;;;;;;-128.00;-1.00;-1.00;101232;1303;1004698;-35
2023/01/23 05:22:51;;;;;;;73.50;21.80;;;;;;;-128.00;-1.00;-1.00;101261;1303;1003321;-32
2023/01/23 05:25:19;;;;;;;77.20;19.10;;;;;;;-128.00;-1.00;-1.00;101254;1303;1004597;-32
2023/01/23 05:27:44;;;;;;;66.50;14.40;;;;;;;-128.00;-1.00;-1.00;101257;1303;1005309;-33
2023/01/23 05:30:10;;;;;;;35.70;10.70;;;;;;;-128.00;-1.00;-1.00;101404;1303;1003695;-36
2023/01/23 05:32:36;;;;;;;107.60;16.30;;;;;;;-128.00;-1.00;-1.00;101158;1303;1004544;-34
2023/01/23 05:35:02;;;;;;;69.20;16.70;;;;;;;-128.00;-1.00;-1.00;101162;1303;1003020;-35
2023/01/23 05:37:28;;;;;;;74.70;17.50;;;;;;;-128.00;-1.00;-1.00;101394;1303;1003813;-32
2023/01/23 05:39:54;;;;;;;186.40;30.90;;;;;;;-128.00;-1.00;-1.00;101543;1303;1003311;-32
2023/01/23 05:42:20;;;;;;;161.50;23.70;;;;;;;-128.00;-1.00;-1.00;101327;1303;1003477;-36
2023/01/23 05:44:45;;;;;;;102.10;17.60;;;;;;;-128.00;-1.00;-1.00;101299;1303;1003921;-35
2023/01/23 05:47:11;;;;;;;71.60;19.00;;;;;;;-128.00;-1.00;-1.00;101273;1303;1004290;-32
2023/01/23 05:49:37;;;;;;;96.70;16.80;;;;;;;-128.00;-1.00;-1.00;101389;1303;1003204;-36
2023/01/23 05:52:03;;;;;;;96.70;15.70;;;;;;;-128.00;-1.00;-1.00;101383;1303;1003390;-33
2023/01/23 05:54:28;;;;;;;109.10;19.00;;;;;;;-128.00;-1.00;-1.00;101239;1303;1002964;-33
2023/01/23 05:56:54;;;;;;;36.70;8.10;;;;;;;-128.00;-1.00;-1.00;101389;1303;1004711;-33
2023/01/23 05:59:20;;;;;;;185.20;20.70;;;;;;;-128.00;-1.00;-1.00;101415;1303;1003633;-33
2023/01/23 06:01:46;;;;;;;56.50;13.70;;;;;;;-128.00;-1.00;-1.00;101371;1303;1003601;-33
2023/01/23 06:04:15;;;;;;;175.90;18.70;;;;;;;-128.00;-1.00;-1.00;101368;1303;1003395;-36
2023/01/23 06:06:43;;;;;;;75.90;21.90;;;;;;;-128.00;-1.00;-1.00;101431;1303;1004070;-35
2023/01/23 06:09:09;;;;;;;51.60;14.80;;;;;;;-128.00;-1.00;-1.00;101386;1303;1003547;-35
2023/01/23 06:11:35;;;;;;;88.10;15.10;;;;;;;-128.00;-1.00;-1.00;101137;1303;1002939;-34
2023/01/23 06:14:01;;;;;;;108.90;19.70;;;;;;;-128.00;-1.00;-1.00;101259;1303;1002895;-35
2023/01/23 06:16:27;;;;;;;117.10;21.70;;;;;;;-128.00;-1.00;-1.00;101434;1303;1004088;-34
2023/01/23 06:18:53;;;;;;;110.50;23.30;;;;;;;-128.00;-1.00;-1.00;101383;1303;1004914;-32
2023/01/23 06:21:18;;;;;;;72.30;19.40;;;;;;;-128.00;-1.00;-1.00;101232;1303;1003451;-34
2023/01/23 06:23:44;;;;;;;77.40;17.60;;;;;;;-128.00;-1.00;-1.00;101191;1303;1003861;-36
2023/01/23 06:26:10;;;;;;;153.70;20.10;;;;;;;-128.00;-1.00;-1.00;101309;1303;1003181;-32
2023/01/23 06:28:36;;;;;;;74.10;15.80;;;;;;;-128.00;-1.00;-1.00;101354;1303;1004170;-35
2023/01/23 06:31:02;;;;;;;209.40;23.40;;;;;;;-128.00;-1.00;-1.00;101371;1303;1004806;-36
2023/01/23 06:33:29;;;;;;;173.90;27.60;;;;;;;-128.00;-1.00;-1.00;101452;1303;1003735;-37
2023/01/23 06:35:57;;;;;;;72.40;18.30;;;;;;;-128.00;-1.00;-1.00;101373;1303;1003693;-34
2023/01/23 06:38:23;;;;;;;49.40;16.90;;;;;;;-128.00;-1.00;-1.00;101332;1303;1002780;-36
2023/01/23 06:40:49;;;;;;;75.80;18.00;;;;;;;-128.00;-1.00;-1.00;101162;1303;1003383;-32
2023/01/23 06:43:14;;;;;;;176.40;21.40;;;;;;;-128.00;-1.00;-1.00;101222;1303;1004147;-32
2023/01/23 06:45:44;;;;;;;175.90;22.80;;;;;;;-128.00;-1.00;-1.00;101339;1303;1002940;-34
2023/01/23 06:48:09;;;;;;;83.70;20.40;;;;;;;-128.00;-1.00;-1.00;101424;1303;1002436;-32
2023/01/23 06:50:37;;;;;;;89.40;20.50;;;;;;;-128.00;-1.00;-1.00;101184;1303;1003486;-32
2023/01/23 06:53:04;;;;;;;81.30;20.90;;;;;;;-128.00;-1.00;-1.00;101226;1297;1003844;-34
2023/01/23 06:55:31;;;;;;;83.00;20.60;;;;;;;-128.00;-1.00;-1.00;101268;1303;1003054;-36
2023/01/23 06:57:56;;;;;;;125.20;24.80;;;;;;;-128.00;-1.00;-1.00;101219;1300;1003401;-33
2023/01/23 07:00:22;;;;;;;71.10;17.50;;;;;;;-128.00;-1.00;-1.00;101386;1303;1003521;-33
2023/01/23 07:02:48;;;;;;;97.80;22.30;;;;;;;-128.00;-1.00;-1.00;101367;1303;1004940;-33
2023/01/23 07:05:14;;;;;;;101.10;23.80;;;;;;;-128.00;-1.00;-1.00;101285;1303;1003922;-35
2023/01/23 07:07:40;;;;;;;91.60;22.60;;;;;;;-128.00;-1.00;-1.00;101175;1303;1004170;-36
2023/01/23 07:10:06;;;;;;;120.10;30.80;;;;;;;-128.00;-1.00;-1.00;101280;1303;1002927;-36
2023/01/23 07:12:32;;;;;;;144.80;35.50;;;;;;;-128.00;-1.00;-1.00;101258;1303;1003373;-36
2023/01/23 07:14:58;;;;;;;110.10;29.70;;;;;;;-128.00;-1.00;-1.00;101571;1303;1003029;-34
2023/01/23 07:17:24;;;;;;;219.00;28.00;;;;;;;-128.00;-1.00;-1.00;101268;1300;1003364;-31
2023/01/23 07:19:50;;;;;;;99.60;19.80;;;;;;;-128.00;-1.00;-1.00;101415;1303;1002570;-33
2023/01/23 07:22:17;;;;;;;79.70;19.40;;;;;;;-128.00;-1.00;-1.00;101317;1303;1002710;-38
2023/01/23 07:24:43;;;;;;;93.20;22.20;;;;;;;-128.00;-1.00;-1.00;101367;1303;1003398;-36
2023/01/23 07:27:09;;;;;;;118.80;21.70;;;;;;;-128.00;-1.00;-1.00;101226;1303;1002619;-37
2023/01/23 07:29:35;;;;;;;46.10;16.00;;;;;;;-128.00;-1.00;-1.00;101149;1303;1004560;-33
2023/01/23 07:32:01;;;;;;;124.10;29.50;;;;;;;-128.00;-1.00;-1.00;101262;1303;1003853;-32
2023/01/23 07:34:27;;;;;;;98.50;24.50;;;;;;;-128.00;-1.00;-1.00;101269;1303;1003420;-34
2023/01/23 07:36:52;;;;;;;83.00;23.90;;;;;;;-128.00;-1.00;-1.00;101421;1304;1003208;-32
2023/01/23 07:39:18;;;;;;;86.10;24.30;;;;;;;-128.00;-1.00;-1.00;101288;1303;1003569;-32
2023/01/23 11:47:36;;;;;;;184.70;40.50;;;;;;;-102.41;19.20;20275.01;101827;1302;1543049;-34
2023/01/23 11:50:27;;;;;;;128.50;31.50;;;;;;;-128.00;-1.00;-1.00;100679;1302;1003682;-34
2023/01/23 11:53:00;;;;;;;118.90;28.30;;;;;;;-128.00;-1.00;-1.00;101254;1302;1002728;-34
2023/01/23 11:55:52;;;;;;;139.50;34.60;;;;;;;-128.00;-1.00;-1.00;101383;1299;1002622;-35
2023/01/23 11:58:31;;;;;;;138.60;36.30;;;;;;;-128.00;-1.00;-1.00;101327;1302;1005331;-35
2023/01/23 12:01:12;;;;;;;122.50;31.30;;;;;;;-128.00;-1.00;-1.00;101352;1302;1003002;-35
2023/01/23 12:03:55;;;;;;;146.40;33.90;;;;;;;-128.00;-1.00;-1.00;101313;1302;1003135;-32
2023/01/23 12:06:52;;;;;;;113.80;30.20;;;;;;;-128.00;-1.00;-1.00;101324;1302;1004761;-31
2023/01/23 12:09:20;;;;;;;128.40;33.40;;;;;;;-128.00;-1.00;-1.00;101391;1302;1004471;-34
2023/01/23 12:12:11;;;;;;;109.10;31.10;;;;;;;-128.00;-1.00;-1.00;101348;1299;1003339;-31
2023/01/23 12:15:08;;;;;;;132.40;37.10;;;;;;;-128.00;-1.00;-1.00;101362;1302;1005263;-32
2023/01/23 12:17:41;;;;;;;125.90;36.30;;;;;;;-128.00;-1.00;-1.00;101435;1302;1003146;-32
2023/01/23 12:20:27;;;;;;;130.60;33.50;;;;;;;-128.00;-1.00;-1.00;101433;1299;1002832;-35
2023/01/23 12:23:15;;;;;;;133.60;35.20;;;;;;;-128.00;-1.00;-1.00;101290;1302;1003300;-32
2023/01/23 12:25:44;;;;;;;110.20;29.40;;;;;;;-128.00;-1.00;-1.00;101364;1302;1004056;-34
2023/01/23 12:28:30;;;;;;;101.70;27.50;;;;;;;-128.00;-1.00;-1.00;101334;1298;1004001;-31
2023/01/23 12:31:13;;;;;;;101.70;26.30;;;;;;;-128.00;-1.00;-1.00;101358;1302;1003649;-36
2023/01/23 12:33:52;;;;;;;;;;;;;;;-128.00;-1.00;-1.00;101369;1298;1002875;-35
2023/01/23 12:36:42;;;;;;;95.00;26.70;;;;;;;-128.00;-1.00;-1.00;101364;1302;1003043;-33
2023/01/23 12:39:35;;;;;;;96.50;27.70;;;;;;;-128.00;-1.00;-1.00;101286;1298;1002708;-33
2023/01/23 12:42:02;;;;;;;116.30;28.80;;;;;;;-128.00;-1.00;-1.00;101314;1302;1003229;-35
2023/01/23 12:44:34;;;;;;;110.30;32.60;;;;;;;-128.00;-1.00;-1.00;101374;1302;1002689;-33
2023/01/23 12:47:15;;;;;;;120.30;34.60;;;;;;;-128.00;-1.00;-1.00;101341;1302;1003203;-33
2023/01/23 12:49:51;;;;;;;143.30;39.30;;;;;;;-128.00;-1.00;-1.00;101270;1302;1002760;-34
2023/01/23 12:52:22;;;;;;;133.30;44.70;;;;;;;-128.00;-1.00;-1.00;101340;1299;1002828;-33
2023/01/23 12:54:53;;;;;;;172.30;48.30;;;;;;;-128.00;-1.00;-1.00;101337;1297;1003128;-33
2023/01/23 12:57:38;;;;;;;126.00;36.90;;;;;;;-128.00;-1.00;-1.00;101303;1302;1003769;-37
2023/01/23 13:00:24;;;;;;;117.30;38.10;;;;;;;-128.00;-1.00;-1.00;101291;1302;1002964;-31
2023/01/23 13:03:08;;;;;;;97.30;31.60;;;;;;;-128.00;-1.00;-1.00;101422;1302;1003675;-32
2023/01/23 13:05:41;;;;;;;159.40;47.00;;;;;;;-128.00;-1.00;-1.00;101327;1302;1003439;-35
2023/01/23 13:08:27;;;;;;;;;;;;;;;-128.00;-1.00;-1.00;101325;1302;1002769;-33
2023/01/23 13:13:44;;;;;;;138.00;40.90;;;;;;;-128.00;-1.00;-1.00;101308;1299;1003187;-32
2023/01/23 13:16:12;;;;;;;107.50;33.00;;;;;;;-128.00;-1.00;-1.00;101306;1302;1003267;-35
2023/01/23 13:25:08;;;;;;;116.30;37.90;;;;;;;-128.00;-1.00;-1.00;101374;1302;1003304;-31
2023/01/23 13:26:39;;;;;;;111.10;33.80;;;;;;;-128.00;-1.00;-1.00;101349;1302;1003220;-36
2023/01/23 13:29:06;;;;;;;89.50;27.80;;;;;;;-128.00;-1.00;-1.00;101292;1302;1004255;-32
2023/01/23 13:31:45;;;;;;;117.60;31.90;;;;;;;-128.00;-1.00;-1.00;101323;1302;1003330;-35
2023/01/23 13:34:33;;;;;;;123.70;31.00;;;;;;;-128.00;-1.00;-1.00;101334;1302;1004163;-36
2023/01/23 13:37:30;;;;;;;136.20;36.90;;;;;;;-128.00;-1.00;-1.00;101320;1302;1003093;-36
2023/01/23 13:40:13;;;;;;;90.20;30.40;;;;;;;-128.00;-1.00;-1.00;101223;1302;1002970;-31
2023/01/23 13:42:39;;;;;;;89.80;30.40;;;;;;;-128.00;-1.00;-1.00;101226;1302;1004193;-33
2023/01/23 13:45:25;;;;;;;119.30;33.20;;;;;;;-128.00;-1.00;-1.00;101317;1302;1004140;-32
2023/01/23 13:50:58;;;;;;;117.50;39.40;;;;;;;-128.00;-1.00;-1.00;101348;1302;1003031;-36
2023/01/23 13:58:40;;;;;;;127.30;32.50;;;;;;;-128.00;-1.00;-1.00;101223;1302;1003104;-37
2023/01/23 14:06:32;;;;;;;117.20;35.00;;;;;;;-128.00;-1.00;-1.00;101305;1302;1003956;-34
2023/01/23 14:08:58;;;;;;;106.00;31.80;;;;;;;-128.00;-1.00;-1.00;101352;1302;1003397;-36
2023/01/23 14:11:23;;;;;;;101.20;28.80;;;;;;;-128.00;-1.00;-1.00;101239;1302;1003433;-33
2023/01/23 14:16:31;;;;;;;122.50;32.70;;;;;;;-128.00;-1.00;-1.00;101269;1302;1003265;-31
2023/01/23 14:19:03;;;;;;;127.60;37.40;;;;;;;-128.00;-1.00;-1.00;101248;1302;1004979;-34
2023/01/23 14:21:32;;;;;;;89.20;30.20;;;;;;;-128.00;-1.00;-1.00;101376;1297;1003053;-35
2023/01/23 14:24:00;;;;;;;105.20;33.50;;;;;;;-128.00;-1.00;-1.00;101320;1302;1003024;-33
2023/01/23 14:26:30;;;;;;;82.30;26.90;;;;;;;-128.00;-1.00;-1.00;101282;1296;1004563;-32
2023/01/23 14:28:59;;;;;;;90.10;27.10;;;;;;;-128.00;-1.00;-1.00;101287;1302;1002790;-33
2023/01/23 14:31:32;;;;;;;107.80;31.10;;;;;;;-128.00;-1.00;-1.00;101298;1302;1003849;-35
2023/01/23 14:34:06;;;;;;;95.20;23.40;;;;;;;-128.00;-1.00;-1.00;101293;1299;1002353;-32
2023/01/23 14:36:33;;;;;;;134.10;31.90;;;;;;;-128.00;-1.00;-1.00;101412;1295;1002880;-34
2023/01/23 14:38:59;;;;;;;102.30;27.30;;;;;;;-128.00;-1.00;-1.00;101423;1302;1002939;-36
2023/01/23 14:41:28;;;;;;;138.40;39.90;;;;;;;-128.00;-1.00;-1.00;101311;1302;1003013;-33
2023/01/23 14:43:55;;;;;;;123.80;32.30;;;;;;;-128.00;-1.00;-1.00;101350;1302;1003208;-36
2023/01/23 14:46:36;;;;;;;158.20;34.20;;;;;;;-128.00;-1.00;-1.00;101298;1302;1003510;-35
2023/01/23 14:49:02;;;;;;;106.00;29.80;;;;;;;-128.00;-1.00;-1.00;101227;1302;1003437;-33
2023/01/23 14:51:28;;;;;;;106.30;30.00;;;;;;;-128.00;-1.00;-1.00;101277;1302;1003278;-34
2023/01/23 14:54:19;;;;;;;138.80;37.60;;;;;;;-128.00;-1.00;-1.00;101416;1302;1004144;-33
2023/01/23 14:56:44;;;;;;;104.00;28.40;;;;;;;-128.00;-1.00;-1.00;101302;1302;1003534;-37
2023/01/23 14:59:22;;;;;;;111.70;34.10;;;;;;;-128.00;-1.00;-1.00;101280;1302;1002606;-33
2023/01/23 15:01:55;;;;;;;109.00;37.20;;;;;;;-128.00;-1.00;-1.00;101358;1302;1003447;-37
2023/01/23 15:04:22;;;;;;;104.40;31.00;;;;;;;-128.00;-1.00;-1.00;101248;1302;1005232;-35
2023/01/23 15:06:51;;;;;;;92.80;27.70;;;;;;;-128.00;-1.00;-1.00;101340;1302;1003461;-33
2023/01/23 15:09:17;;;;;;;89.20;29.30;;;;;;;-128.00;-1.00;-1.00;101382;1302;1004268;-36
2023/01/23 15:11:43;;;;;;;104.60;31.50;;;;;;;-128.00;-1.00;-1.00;101311;1302;1003967;-34
2023/01/23 15:14:22;;;;;;;79.70;26.20;;;;;;;-128.00;-1.00;-1.00;101226;1302;1004467;-34
2023/01/23 15:16:50;;;;;;;79.20;19.40;;;;;;;-128.00;-1.00;-1.00;101414;1302;1003280;-37
2023/01/23 15:19:19;;;;;;;99.60;33.60;;;;;;;-128.00;-1.00;-1.00;101353;1302;1005212;-35
2023/01/23 15:21:45;;;;;;;97.60;33.80;;;;;;;-128.00;-1.00;-1.00;101334;1302;1004542;-36
2023/01/23 15:24:17;;;;;;;110.30;35.70;;;;;;;-128.00;-1.00;-1.00;101269;1302;1003881;-37
2023/01/23 15:26:56;;;;;;;94.70;29.90;;;;;;;-128.00;-1.00;-1.00;101386;1302;1002871;-34
2023/01/23 15:29:22;;;;;;;118.60;36.50;;;;;;;-128.00;-1.00;-1.00;101392;1302;1003118;-35
2023/01/23 15:31:52;;;;;;;89.40;29.00;;;;;;;-128.00;-1.00;-1.00;101415;1302;1002765;-35
2023/01/23 15:34:30;;;;;;;108.60;33.50;;;;;;;-128.00;-1.00;-1.00;101287;1302;1003766;-34
2023/01/23 15:37:05;;;;;;;64.80;23.90;;;;;;;-128.00;-1.00;-1.00;101458;1302;1003212;-35
2023/01/23 15:39:47;;;;;;;78.80;25.70;;;;;;;-128.00;-1.00;-1.00;101118;1302;1003165;-37
2023/01/23 15:42:30;;;;;;;88.00;26.00;;;;;;;-128.00;-1.00;-1.00;101296;1302;1004205;-32
2023/01/23 15:44:59;;;;;;;104.00;29.00;;;;;;;-128.00;-1.00;-1.00;101411;1302;1002483;-30
2023/01/23 15:47:27;;;;;;;87.70;25.00;;;;;;;-128.00;-1.00;-1.00;101183;1302;1004868;-32
2023/01/23 15:49:53;;;;;;;104.10;34.10;;;;;;;-128.00;-1.00;-1.00;101394;1302;1003057;-36
2023/01/23 15:52:24;;;;;;;113.30;33.90;;;;;;;-128.00;-1.00;-1.00;101332;1302;1003954;-35
2023/01/23 15:54:58;;;;;;;124.80;36.30;;;;;;;-128.00;-1.00;-1.00;101150;1302;1002930;-33
2023/01/23 15:57:24;;;;;;;76.60;27.50;;;;;;;-128.00;-1.00;-1.00;101243;1296;1002787;-32
2023/01/23 15:59:49;;;;;;;88.70;28.70;;;;;;;-128.00;-1.00;-1.00;101252;1302;1004661;-33
2023/01/23 16:02:17;;;;;;;112.10;33.30;;;;;;;-128.00;-1.00;-1.00;101305;1302;1002771;-32
2023/01/23 16:04:44;;;;;;;85.20;25.80;;;;;;;-128.00;-1.00;-1.00;101301;1302;1003507;-32
2023/01/23 16:48:09;;;;;;;128.30;33.70;;;;;;;-102.51;19.20;20293.65;101846;1303;1543870;-37
2023/01/23 16:50:40;;;;;;;107.90;28.20;;;;;;;-128.00;-1.00;-1.00;97557;1302;5030302;-32
2023/01/23 16:53:19;;;;;;;136.70;34.90;;;;;;;-128.00;-1.00;-1.00;101160;1304;1003157;-35
2023/01/23 16:55:46;;;;;;;133.20;33.50;;;;;;;-128.00;-1.00;-1.00;101417;1304;1002931;-33
2023/01/23 16:58:16;;;;;;;117.70;32.80;;;;;;;-128.00;-1.00;-1.00;101348;1304;1003775;-32
2023/01/23 17:00:42;;;;;;;105.30;33.70;;;;;;;-128.00;-1.00;-1.00;101211;1304;1003661;-33
2023/01/23 17:03:08;;;;;;;110.60;36.20;;;;;;;-128.00;-1.00;-1.00;101231;1304;1002704;-32
2023/01/23 17:05:33;;;;;;;87.40;27.80;;;;;;;-128.00;-1.00;-1.00;101178;1304;1003634;-36